createdAt,value
2019-01-03T00:02:46.705Z,5.5
2019-01-03T00:07:52.210Z,18.3
2019-01-03T00:12:57.025Z,12.1
2019-01-03T00:18:01.450Z,10.2
2019-01-03T00:23:07.158Z,10.1
2019-01-03T00:28:13.929Z,13.9
2019-01-03T00:33:17.952Z,10
2019-01-03T00:38:23.083Z,10.9
2019-01-03T00:43:28.805Z,9.8
2019-01-03T00:48:34.012Z,9.9
2019-01-03T00:53:39.539Z,7.9
2019-01-03T00:58:45.368Z,7.9
2019-01-03T01:03:50.293Z,8.3
2019-01-03T01:08:54.599Z,9.5
2019-01-03T01:13:59.663Z,5.5
2019-01-03T01:19:05.109Z,6.5
2019-01-03T01:24:10.084Z,6.6
2019-01-03T01:29:14.472Z,6
2019-01-03T01:34:20.230Z,7
2019-01-03T01:39:25.679Z,7.9
2019-01-03T01:44:31.351Z,6.1
2019-01-03T01:49:37.094Z,7.6
2019-01-03T01:54:42.004Z,6.3
2019-01-03T01:59:47.800Z,6.3
2019-01-03T02:04:53.362Z,6.1
2019-01-03T02:09:58.529Z,5.2
2019-01-03T02:15:04.057Z,5.9
2019-01-03T02:20:09.202Z,5.2
2019-01-03T02:25:14.788Z,4.5
2019-01-03T02:30:20.631Z,5
2019-01-03T02:35:25.620Z,6.6
2019-01-03T02:40:30.844Z,4.9
2019-01-03T02:45:36.575Z,4.6
2019-01-03T02:50:42.397Z,6.5
2019-01-03T02:55:47.673Z,4.3
2019-01-03T03:00:53.980Z,5.2
2019-01-03T03:05:58.865Z,4.4
2019-01-03T03:11:04.379Z,3.9
2019-01-03T03:16:09.958Z,6.1
2019-01-03T03:21:15.416Z,4
2019-01-03T03:26:20.520Z,4.6
2019-01-03T03:31:26.444Z,4.2
2019-01-03T03:36:31.901Z,7.2
2019-01-03T03:41:36.971Z,3.8
2019-01-03T03:46:42.698Z,4.8
2019-01-03T03:51:48.631Z,5.7
2019-01-03T03:56:53.677Z,4.5
2019-01-03T04:01:59.015Z,3.8
2019-01-03T04:07:04.377Z,5.3
2019-01-03T04:12:09.703Z,5.2
2019-01-03T04:17:14.612Z,3.8
2019-01-03T04:22:20.656Z,3.7
2019-01-03T04:27:24.711Z,5.1
2019-01-03T04:32:30.383Z,3.5
2019-01-03T04:37:36.239Z,4.4
2019-01-03T04:42:41.452Z,3.1
2019-01-03T04:47:46.417Z,3.8
2019-01-03T04:52:52.275Z,3.4
2019-01-03T04:57:58.109Z,3.6
2019-01-03T05:03:04.568Z,3.1
2019-01-03T05:08:09.709Z,2.9
2019-01-03T05:13:14.865Z,2.5
2019-01-03T05:18:20.496Z,4
2019-01-03T05:23:25.908Z,2.5
2019-01-03T05:28:30.163Z,2.4
2019-01-03T05:33:35.705Z,3
2019-01-03T05:38:40.851Z,3.4
2019-01-03T05:43:47.166Z,2.4
2019-01-03T05:48:52.559Z,2.5
2019-01-03T05:53:58.178Z,3.4
2019-01-03T05:59:03.402Z,3.2
2019-01-03T06:04:08.565Z,2.6
2019-01-03T06:09:13.604Z,2.9
2019-01-03T06:14:19.664Z,2.6
2019-01-03T06:19:25.342Z,2.9
2019-01-03T06:24:31.239Z,2.3
2019-01-03T06:29:36.712Z,3
2019-01-03T06:34:42.574Z,2.8
2019-01-03T06:39:46.508Z,2.8
2019-01-03T06:44:52.371Z,3.5
2019-01-03T06:49:58.452Z,2.7
2019-01-03T06:55:05.419Z,2.9
2019-01-03T07:00:08.910Z,2.5
2019-01-03T07:05:14.835Z,4.1
2019-01-03T07:10:20.464Z,2.7
2019-01-03T07:15:25.555Z,3.8
2019-01-03T07:20:30.825Z,6.6
2019-01-03T07:25:36.073Z,4.7
2019-01-03T07:30:41.047Z,12.5
2019-01-03T07:35:46.435Z,8.6
2019-01-03T07:40:52.125Z,9.9
2019-01-03T07:45:58.200Z,13.6
2019-01-03T07:51:02.269Z,8.2
2019-01-03T07:56:07.746Z,11
2019-01-03T08:01:13.301Z,5.9
2019-01-03T08:06:19.446Z,8.4
2019-01-03T08:11:24.608Z,6
2019-01-03T08:16:30.208Z,7
2019-01-03T08:21:35.636Z,6.3
2019-01-03T08:26:40.811Z,7.3
2019-01-03T08:31:46.469Z,6.9
2019-01-03T08:36:52.681Z,8.1
2019-01-03T08:41:58.217Z,9.4
2019-01-03T08:47:03.575Z,9
2019-01-03T08:52:08.758Z,13.2
2019-01-03T08:57:14.073Z,10.8
2019-01-03T09:02:19.049Z,15.9
2019-01-03T09:07:24.002Z,22.3
2019-01-03T09:12:29.054Z,19.3
2019-01-03T09:17:34.112Z,22.2
2019-01-03T09:22:39.128Z,19.3
2019-01-03T09:27:44.320Z,24.5
2019-01-03T09:32:50.107Z,24.2
2019-01-03T09:37:55.717Z,24.5
2019-01-03T09:42:59.211Z,22.7
2019-01-03T09:48:04.174Z,22.5
2019-01-03T09:53:09.083Z,27.7
2019-01-03T09:58:14.078Z,21.6
2019-01-03T10:03:19.694Z,19.5
2019-01-03T10:08:24.778Z,23.7
2019-01-03T10:13:30.591Z,21.2
2019-01-03T10:18:35.636Z,29
2019-01-03T10:23:40.785Z,22.2
2019-01-03T10:28:46.121Z,15.1
2019-01-03T10:33:51.146Z,16.2
2019-01-03T10:38:56.540Z,15.8
2019-01-03T10:44:02.576Z,15.1
2019-01-03T10:49:08.444Z,14
2019-01-03T10:54:14.286Z,15.5
2019-01-03T10:59:17.830Z,15.7
2019-01-03T11:04:23.535Z,12.4
2019-01-03T11:09:29.203Z,13.3
2019-01-03T11:14:32.597Z,13.9
2019-01-03T11:19:38.898Z,19.5
2019-01-03T11:24:44.306Z,19.3
2019-01-03T11:29:49.759Z,10.5
2019-01-03T11:34:55.456Z,18.4
2019-01-03T11:40:01.369Z,12.4
2019-01-03T11:45:06.922Z,13.6
2019-01-03T11:50:12.752Z,10.4
2019-01-03T11:55:18.419Z,14.6
2019-01-03T12:00:23.522Z,12.2
2019-01-03T12:05:28.382Z,9.5
2019-01-03T12:10:32.864Z,10.2
2019-01-03T12:15:36.664Z,6.7
2019-01-03T12:20:41.949Z,6.3
2019-01-03T12:25:47.231Z,9
2019-01-03T12:30:50.790Z,6
2019-01-03T12:35:55.890Z,9.8
2019-01-03T12:41:01.783Z,6.1
2019-01-03T12:46:07.372Z,5.1
2019-01-03T12:51:13.493Z,6
2019-01-03T12:56:18.796Z,5.5
2019-01-03T13:01:24.544Z,3.5
2019-01-03T13:06:30.245Z,6
2019-01-03T13:11:36.172Z,5.6
2019-01-03T13:16:42.008Z,3.9
2019-01-03T13:21:47.892Z,5.4
2019-01-03T13:26:52.835Z,4.8
2019-01-03T13:31:59.455Z,7.2
2019-01-03T13:37:04.543Z,5
2019-01-03T13:42:09.800Z,3.7
2019-01-03T13:47:14.749Z,3.8
2019-01-03T13:52:20.186Z,4.8
2019-01-03T13:57:26.135Z,4.6
2019-01-03T14:02:31.334Z,5.5
2019-01-03T14:07:37.454Z,3.2
2019-01-03T14:12:43.281Z,3.7
2019-01-03T14:17:48.895Z,4.3
2019-01-03T14:22:53.940Z,3.5
2019-01-03T14:27:59.700Z,3
2019-01-03T14:33:05.667Z,5.1
2019-01-03T14:38:10.839Z,3.3
2019-01-03T14:43:15.197Z,4.9
2019-01-03T14:48:20.552Z,3.3
2019-01-03T14:53:25.756Z,2.7
2019-01-03T14:58:31.040Z,4.6
2019-01-03T15:03:37.406Z,4.2
2019-01-03T15:08:42.407Z,3.2
2019-01-03T15:13:47.488Z,4.5
2019-01-03T15:18:53.078Z,2.4
2019-01-03T15:23:58.542Z,6.6
2019-01-03T15:29:04.107Z,4.7
2019-01-03T15:34:09.362Z,3.9
2019-01-03T15:39:15.496Z,9.3
2019-01-03T15:44:20.579Z,6.2
2019-01-03T15:49:26.216Z,6.5
2019-01-03T15:54:31.958Z,5.8
2019-01-03T15:59:38.380Z,7.1
2019-01-03T16:04:43.489Z,7.9
2019-01-03T16:09:50.036Z,6.9
2019-01-03T16:14:55.583Z,7.1
2019-01-03T16:20:00.752Z,12.3
2019-01-03T16:25:07.320Z,11.3
2019-01-03T16:30:14.089Z,10
2019-01-03T16:35:19.875Z,10.5
2019-01-03T16:40:25.699Z,11.1
2019-01-03T16:45:31.283Z,9.7
2019-01-03T16:50:36.194Z,10
2019-01-03T16:55:41.162Z,9.1
2019-01-03T17:00:47.629Z,12.6
2019-01-03T17:05:52.961Z,12.9
2019-01-03T17:10:58.069Z,10.5
2019-01-03T17:16:03.286Z,15.1
2019-01-03T17:21:08.770Z,20.4
2019-01-03T17:26:13.920Z,24.2
2019-01-03T17:31:18.900Z,23.9
2019-01-03T17:36:25.590Z,22.1
2019-01-03T17:41:31.329Z,24.7
2019-01-03T17:46:36.512Z,26.4
2019-01-03T17:51:42.297Z,26
2019-01-03T17:56:47.659Z,23.4
2019-01-03T18:01:53.903Z,16.4
2019-01-03T18:06:59.214Z,20.4
2019-01-03T18:12:04.369Z,21
2019-01-03T18:17:12.352Z,20.7
2019-01-03T18:22:17.529Z,20.6
2019-01-03T18:27:22.569Z,17.2
2019-01-03T18:32:27.489Z,27.7
2019-01-03T18:37:33.341Z,49.1
2019-01-03T18:42:38.882Z,40.5
2019-01-03T18:47:44.681Z,41.1
2019-01-03T18:52:50.357Z,41.9
2019-01-03T18:57:55.831Z,40.8
2019-01-03T19:03:01.329Z,41.9
2019-01-03T19:08:06.432Z,39.3
2019-01-03T19:12:57.582Z,170.6
2019-01-03T19:18:02.917Z,164.3
2019-01-03T19:23:08.324Z,50
2019-01-03T19:28:15.657Z,38
2019-01-03T19:33:18.964Z,33.2
2019-01-03T19:38:24.875Z,31.8
2019-01-03T19:43:30.742Z,38.5
2019-01-03T19:48:35.716Z,26.6
2019-01-03T19:53:42.495Z,28
2019-01-03T19:58:48.518Z,27.4
2019-01-03T20:03:53.557Z,20.7
2019-01-03T20:08:58.542Z,21.2
2019-01-03T20:14:03.984Z,21.3
2019-01-03T20:19:09.678Z,19.2
2019-01-03T20:24:17.605Z,19.1
2019-01-03T20:29:23.309Z,22.8
2019-01-03T20:34:28.108Z,22.7
2019-01-03T20:39:35.138Z,22.4
2019-01-03T20:44:40.037Z,23.2
2019-01-03T20:49:46.996Z,18.6
2019-01-03T20:54:56.758Z,19.5
2019-01-03T21:00:02.552Z,19.8
2019-01-03T21:05:03.026Z,22.1
2019-01-03T21:10:08.557Z,22.4
2019-01-03T21:15:16.216Z,17.4
2019-01-03T21:20:21.647Z,19
2019-01-03T21:25:27.255Z,17.9
2019-01-03T21:30:34.132Z,18.2
2019-01-03T21:35:39.282Z,14.9
2019-01-03T21:40:48.212Z,14.5
2019-01-03T21:45:53.881Z,14.9
2019-01-03T21:50:59.737Z,14.1
2019-01-03T21:56:04.957Z,16.1
2019-01-03T22:01:10.381Z,13.5
2019-01-03T22:06:15.396Z,14.1
2019-01-03T22:11:21.767Z,15.6
2019-01-03T22:16:26.885Z,13.7
2019-01-03T22:21:32.293Z,16.8
2019-01-03T22:26:37.250Z,14.9
2019-01-03T22:31:44.164Z,16.9
2019-01-03T22:36:47.843Z,14.2
2019-01-03T22:41:53.145Z,16.1
2019-01-03T22:47:03.463Z,14.8
2019-01-03T22:52:09.444Z,15
2019-01-03T22:57:15.003Z,13.3
2019-01-03T23:02:20.751Z,13
2019-01-03T23:07:27.571Z,14.6
2019-01-03T23:12:33.514Z,13.8
2019-01-03T23:17:38.960Z,15.1
2019-01-03T23:22:44.156Z,13.9
2019-01-03T23:27:49.708Z,16
2019-01-03T23:32:53.807Z,19.3
2019-01-03T23:37:59.087Z,23.3
2019-01-03T23:43:05.032Z,20.1
2019-01-03T23:48:10.223Z,18
2019-01-03T23:53:15.529Z,21.7
2019-01-03T23:58:22.484Z,18.9
